createdAt,value
2023-03-26T00:02:06.940Z,1.07
2023-03-26T00:04:35.588Z,0.87
2023-03-26T00:07:05.108Z,1.10
2023-03-26T00:09:35.152Z,1.00
2023-03-26T00:12:03.887Z,1.13
2023-03-26T00:14:32.649Z,1.17
2023-03-26T00:17:01.313Z,1.80
2023-03-26T00:19:30.145Z,1.30
2023-03-26T00:21:58.767Z,1.30
2023-03-26T00:24:29.617Z,1.13
2023-03-26T00:26:59.648Z,1.17
2023-03-26T00:29:28.786Z,1.43
2023-03-26T00:31:57.403Z,1.13
2023-03-26T00:34:26.802Z,1.30
2023-03-26T00:36:55.729Z,1.27
2023-03-26T00:39:24.441Z,1.70
2023-03-26T00:41:54.255Z,1.43
2023-03-26T00:44:24.613Z,1.20
2023-03-26T00:46:53.353Z,1.30
2023-03-26T00:49:22.007Z,1.40
2023-03-26T00:51:51.145Z,1.07
2023-03-26T00:54:19.833Z,1.13
2023-03-26T00:56:48.479Z,1.43
2023-03-26T00:59:17.556Z,1.40
2023-03-26T01:01:47.482Z,1.27
2023-03-26T01:04:27.548Z,1.20
2023-03-26T01:06:58.459Z,1.10
2023-03-26T01:09:33.869Z,1.10
2023-03-26T01:12:03.924Z,1.20
2023-03-26T01:14:32.606Z,1.10
2023-03-26T01:17:05.935Z,1.20
2023-03-26T01:19:39.090Z,1.13
2023-03-26T01:22:11.112Z,1.13
2023-03-26T01:24:41.917Z,1.27
2023-03-26T01:27:19.107Z,1.10
2023-03-26T01:29:54.177Z,1.37
2023-03-26T01:32:37.649Z,1.47
2023-03-26T01:35:17.234Z,1.50
2023-03-26T01:37:58.441Z,1.00
2023-03-26T01:40:38.518Z,1.57
2023-03-26T01:43:11.959Z,1.10
2023-03-26T01:45:43.564Z,1.00
2023-03-26T01:48:13.154Z,1.17
2023-03-26T01:50:41.804Z,1.20
2023-03-26T01:53:12.576Z,1.30
2023-03-26T01:55:49.750Z,1.13
2023-03-26T01:58:25.792Z,1.30
2023-03-26T02:00:57.922Z,1.27
2023-03-26T02:03:29.250Z,1.00
2023-03-26T02:06:01.504Z,1.00
2023-03-26T02:08:35.636Z,1.10
2023-03-26T02:11:11.533Z,1.10
2023-03-26T02:13:41.431Z,1.00
2023-03-26T02:16:14.267Z,1.30
2023-03-26T02:18:43.766Z,1.43
2023-03-26T02:21:14.399Z,1.10
2023-03-26T02:23:46.874Z,1.73
2023-03-26T02:26:20.169Z,1.37
2023-03-26T02:28:48.791Z,1.20
2023-03-26T02:31:20.127Z,1.27
2023-03-26T02:33:49.544Z,1.00
2023-03-26T02:36:21.903Z,1.47
2023-03-26T02:38:51.496Z,1.20
2023-03-26T02:41:21.559Z,1.10
2023-03-26T02:43:50.404Z,1.33
2023-03-26T02:46:19.060Z,1.03
2023-03-26T02:48:47.834Z,1.63
2023-03-26T02:51:18.210Z,1.00
2023-03-26T02:53:47.418Z,1.30
2023-03-26T02:56:16.141Z,1.10
2023-03-26T02:58:46.897Z,1.10
2023-03-26T03:01:18.541Z,1.53
2023-03-26T03:03:48.412Z,1.03
2023-03-26T03:06:18.825Z,1.10
2023-03-26T03:08:47.770Z,1.30
2023-03-26T03:11:17.910Z,1.13
2023-03-26T03:13:47.981Z,2.70
2023-03-26T03:16:17.208Z,1.00
2023-03-26T03:18:46.504Z,1.17
2023-03-26T03:21:15.225Z,1.30
2023-03-26T03:23:43.814Z,1.87
2023-03-26T03:26:15.515Z,1.40
2023-03-26T03:28:45.066Z,1.13
2023-03-26T03:31:15.024Z,1.43
2023-03-26T03:33:44.001Z,1.60
2023-03-26T03:36:19.751Z,1.70
2023-03-26T03:38:49.991Z,1.10
2023-03-26T03:41:19.209Z,1.40
2023-03-26T03:43:47.846Z,1.10
2023-03-26T03:46:17.896Z,1.20
2023-03-26T03:48:49.595Z,1.27
2023-03-26T03:51:18.307Z,1.60
2023-03-26T03:53:47.470Z,1.63
2023-03-26T03:56:19.068Z,1.80
2023-03-26T03:58:47.934Z,1.13
2023-03-26T04:01:18.639Z,1.20
2023-03-26T04:03:47.464Z,1.20
2023-03-26T04:06:18.979Z,1.27
2023-03-26T04:08:47.758Z,1.63
2023-03-26T04:11:16.472Z,2.00
2023-03-26T04:13:45.512Z,1.70
2023-03-26T04:16:14.308Z,1.23
2023-03-26T04:18:45.203Z,1.70
2023-03-26T04:21:15.882Z,1.20
2023-03-26T04:23:45.239Z,1.30
2023-03-26T04:26:16.859Z,1.20
2023-03-26T04:28:48.299Z,1.27
2023-03-26T04:31:18.827Z,2.00
2023-03-26T04:33:48.872Z,1.50
2023-03-26T04:36:18.040Z,1.47
2023-03-26T04:38:49.154Z,2.40
2023-03-26T04:41:17.735Z,2.03
2023-03-26T04:43:50.674Z,1.07
2023-03-26T04:46:22.303Z,1.67
2023-03-26T04:48:52.583Z,1.27
2023-03-26T04:51:22.488Z,1.20
2023-03-26T04:53:53.745Z,1.23
2023-03-26T04:56:31.667Z,1.10
2023-03-26T04:59:02.533Z,1.70
2023-03-26T05:01:32.068Z,2.23
2023-03-26T05:04:02.076Z,1.23
2023-03-26T05:06:34.230Z,1.50
2023-03-26T05:09:03.224Z,1.60
2023-03-26T05:11:31.906Z,1.47
2023-03-26T05:14:00.548Z,1.90
2023-03-26T05:16:29.535Z,1.57
2023-03-26T05:18:58.299Z,1.40
2023-03-26T05:21:28.264Z,1.50
2023-03-26T05:23:56.862Z,1.67
2023-03-26T05:26:26.026Z,1.20
2023-03-26T05:28:54.632Z,1.53
2023-03-26T05:31:23.364Z,1.23
2023-03-26T05:33:52.112Z,1.43
2023-03-26T05:36:20.714Z,1.00
2023-03-26T05:38:52.343Z,1.23
2023-03-26T05:41:21.006Z,2.40
2023-03-26T05:43:49.615Z,1.40
2023-03-26T05:46:20.281Z,1.80
2023-03-26T05:48:48.982Z,1.80
2023-03-26T05:51:17.581Z,1.20
2023-03-26T05:53:46.243Z,1.88
2023-03-26T05:56:16.276Z,1.20
2023-03-26T05:58:45.034Z,1.47
2023-03-26T06:01:18.496Z,1.47
2023-03-26T06:03:47.460Z,1.47
2023-03-26T06:06:17.594Z,1.57
2023-03-26T06:08:48.834Z,1.70
2023-03-26T06:11:32.795Z,1.40
2023-03-26T06:14:01.784Z,1.33
2023-03-26T06:16:30.414Z,1.33
2023-03-26T06:18:59.155Z,1.43
2023-03-26T06:21:28.077Z,1.27
2023-03-26T06:23:56.695Z,1.20
2023-03-26T06:26:25.740Z,1.30
2023-03-26T06:28:55.837Z,1.40
2023-03-26T06:31:24.585Z,1.30
2023-03-26T06:33:53.475Z,2.20
2023-03-26T06:36:22.108Z,1.80
2023-03-26T06:38:50.791Z,1.50
2023-03-26T06:41:19.435Z,1.40
2023-03-26T06:43:48.205Z,1.30
2023-03-26T06:46:18.741Z,2.03
2023-03-26T06:48:47.578Z,1.43
2023-03-26T06:51:16.285Z,1.90
2023-03-26T06:53:44.941Z,1.50
2023-03-26T06:56:13.535Z,1.77
2023-03-26T06:58:42.180Z,1.57
2023-03-26T07:01:10.838Z,1.07
2023-03-26T07:03:41.060Z,1.70
2023-03-26T07:06:10.423Z,1.80
2023-03-26T07:08:39.060Z,1.67
2023-03-26T07:11:08.062Z,1.20
2023-03-26T07:13:37.599Z,1.80
2023-03-26T07:16:07.025Z,1.67
2023-03-26T07:18:35.686Z,1.63
2023-03-26T07:21:06.662Z,1.90
2023-03-26T07:23:36.209Z,1.90
2023-03-26T07:26:16.642Z,1.80
2023-03-26T07:29:04.939Z,1.60
2023-03-26T07:31:42.064Z,1.30
2023-03-26T07:34:18.660Z,2.07
2023-03-26T07:36:53.364Z,11.63
2023-03-26T07:39:33.752Z,13.10
2023-03-26T07:42:07.712Z,5.10
2023-03-26T07:44:47.543Z,3.17
2023-03-26T07:47:25.842Z,3.03
2023-03-26T07:49:55.776Z,2.07
2023-03-26T07:52:26.685Z,1.90
2023-03-26T07:54:55.843Z,1.80
2023-03-26T07:57:33.205Z,1.67
2023-03-26T08:00:08.227Z,1.60
2023-03-26T08:02:57.268Z,2.03
2023-03-26T08:05:28.018Z,1.40
2023-03-26T08:08:16.467Z,1.67
2023-03-26T08:10:59.610Z,1.60
2023-03-26T08:13:44.109Z,2.07
2023-03-26T08:16:25.501Z,1.30
2023-03-26T08:18:58.125Z,1.80
2023-03-26T08:21:29.509Z,1.60
2023-03-26T08:24:04.825Z,2.00
2023-03-26T08:26:38.540Z,2.30
2023-03-26T08:29:19.574Z,1.60
2023-03-26T08:31:49.516Z,1.63
2023-03-26T08:34:18.198Z,1.97
2023-03-26T08:36:47.528Z,1.70
2023-03-26T08:39:18.161Z,1.87
2023-03-26T08:42:17.430Z,2.30
2023-03-26T08:45:24.196Z,2.53
2023-03-26T08:48:34.813Z,2.00
2023-03-26T08:51:33.878Z,2.00
2023-03-26T08:54:19.079Z,1.80
2023-03-26T08:56:53.981Z,2.03
2023-03-26T09:00:08.886Z,1.77
2023-03-26T09:03:06.272Z,2.00
2023-03-26T09:05:54.840Z,2.33
2023-03-26T09:08:55.226Z,1.87
2023-03-26T09:11:47.095Z,1.57
2023-03-26T09:14:46.152Z,2.33
2023-03-26T09:17:44.752Z,2.33
2023-03-26T09:20:56.312Z,2.00
2023-03-26T09:24:06.601Z,2.07
2023-03-26T09:27:03.976Z,1.53
2023-03-26T09:30:16.824Z,2.23
2023-03-26T09:33:11.894Z,1.77
2023-03-26T09:35:52.833Z,1.50
2023-03-26T09:38:35.829Z,1.30
2023-03-26T09:41:11.007Z,1.60
2023-03-26T09:44:15.879Z,2.57
2023-03-26T09:46:50.125Z,1.50
2023-03-26T09:49:28.624Z,1.40
2023-03-26T09:52:13.183Z,2.30
2023-03-26T09:55:03.685Z,1.43
2023-03-26T09:57:53.602Z,1.37
2023-03-26T10:00:28.637Z,1.20
2023-03-26T10:03:12.897Z,1.40
2023-03-26T10:05:54.678Z,0.90
2023-03-26T10:08:32.703Z,1.00
2023-03-26T10:11:06.509Z,1.30
2023-03-26T10:13:42.237Z,1.00
2023-03-26T10:16:22.626Z,1.00
2023-03-26T10:19:05.319Z,1.00
2023-03-26T10:21:41.411Z,1.10
2023-03-26T10:24:27.838Z,0.90
2023-03-26T10:27:08.971Z,0.70
2023-03-26T10:29:51.974Z,0.80
2023-03-26T10:32:28.277Z,0.90
2023-03-26T10:35:22.372Z,0.90
2023-03-26T10:38:00.155Z,0.60
2023-03-26T10:40:34.022Z,0.87
2023-03-26T10:43:29.203Z,0.80
2023-03-26T10:46:14.731Z,0.93
2023-03-26T10:49:09.813Z,0.73
2023-03-26T10:51:48.565Z,0.90
2023-03-26T10:54:24.388Z,0.63
2023-03-26T10:56:53.616Z,0.70
2023-03-26T10:59:22.362Z,1.00
2023-03-26T11:01:57.278Z,0.70
2023-03-26T11:04:35.634Z,1.00
2023-03-26T11:07:11.257Z,1.30
2023-03-26T11:09:45.297Z,0.70
2023-03-26T11:12:26.791Z,0.90
2023-03-26T11:15:08.871Z,0.90
2023-03-26T11:17:44.818Z,0.73
2023-03-26T11:20:18.605Z,1.13
2023-03-26T11:22:57.906Z,1.00
2023-03-26T11:25:36.095Z,0.90
2023-03-26T11:28:13.988Z,0.90
2023-03-26T11:30:47.754Z,0.80
2023-03-26T11:33:19.446Z,1.07
2023-03-26T11:35:51.196Z,0.90
2023-03-26T11:38:24.368Z,0.90
2023-03-26T11:40:55.819Z,1.00
2023-03-26T11:43:27.423Z,0.70
2023-03-26T11:45:56.305Z,0.60
2023-03-26T11:48:28.577Z,0.87
2023-03-26T11:51:02.522Z,1.00
2023-03-26T11:53:34.648Z,0.70
2023-03-26T11:56:05.673Z,0.63
2023-03-26T11:58:38.306Z,0.80
2023-03-26T12:01:15.345Z,0.50
2023-03-26T12:03:44.201Z,0.77
2023-03-26T12:06:25.549Z,0.97
2023-03-26T12:08:56.927Z,0.70
2023-03-26T12:11:28.047Z,0.80
2023-03-26T12:14:00.200Z,0.80
2023-03-26T12:16:29.409Z,1.10
2023-03-26T12:19:03.897Z,0.77
2023-03-26T12:21:46.067Z,1.23
2023-03-26T12:24:28.396Z,0.70
2023-03-26T12:27:02.192Z,0.73
2023-03-26T12:29:34.287Z,0.73
2023-03-26T12:32:10.094Z,0.80
2023-03-26T12:34:39.369Z,0.70
2023-03-26T12:37:33.056Z,0.83
2023-03-26T12:40:17.142Z,0.67
2023-03-26T12:44:51.112Z,0.60
2023-03-26T12:45:44.278Z,0.70
2023-03-26T12:48:15.494Z,3.10
2023-03-26T12:50:57.068Z,0.80
2023-03-26T12:53:53.532Z,0.70
2023-03-26T12:56:27.369Z,0.70
2023-03-26T12:59:14.129Z,0.77
2023-03-26T13:01:50.397Z,0.90
2023-03-26T13:04:34.309Z,1.20
2023-03-26T13:07:06.458Z,1.13
2023-03-26T13:09:45.819Z,1.07
2023-03-26T13:12:25.132Z,1.87
2023-03-26T13:15:18.803Z,0.63
2023-03-26T13:17:55.503Z,0.90
2023-03-26T13:20:27.215Z,0.90
2023-03-26T13:22:59.433Z,0.70
2023-03-26T13:25:35.229Z,0.80
2023-03-26T13:28:21.694Z,1.23
2023-03-26T13:30:58.533Z,1.17
2023-03-26T13:33:43.381Z,0.70
2023-03-26T13:36:23.718Z,0.97
2023-03-26T13:39:07.524Z,0.70
2023-03-26T13:41:48.283Z,0.80
2023-03-26T13:44:24.827Z,0.60
2023-03-26T13:46:54.562Z,0.77
2023-03-26T13:49:29.055Z,0.53
2023-03-26T13:51:59.823Z,0.80
2023-03-26T13:54:31.819Z,0.80
2023-03-26T13:57:08.551Z,0.67
2023-03-26T13:59:40.552Z,0.80
2023-03-26T14:02:12.369Z,0.70
2023-03-26T14:04:43.766Z,0.80
2023-03-26T14:07:15.804Z,0.97
2023-03-26T14:09:48.432Z,0.70
2023-03-26T14:12:31.470Z,0.70
2023-03-26T14:15:02.210Z,0.97
2023-03-26T14:17:36.405Z,0.80
2023-03-26T14:20:50.187Z,1.10
2023-03-26T14:23:54.155Z,0.80
2023-03-26T14:26:30.549Z,0.70
2023-03-26T14:29:29.012Z,0.80
2023-03-26T14:32:07.708Z,0.80
2023-03-26T14:34:46.734Z,0.80
2023-03-26T14:37:34.832Z,0.90
2023-03-26T14:40:27.028Z,1.03
2023-03-26T14:43:05.674Z,0.70
2023-03-26T14:45:54.045Z,0.93
2023-03-26T14:48:42.796Z,0.70
2023-03-26T14:51:20.594Z,0.80
2023-03-26T14:53:51.607Z,0.70
2023-03-26T14:56:38.667Z,0.70
2023-03-26T14:59:54.743Z,0.77
2023-03-26T15:03:04.062Z,0.70
2023-03-26T15:05:49.430Z,0.83
2023-03-26T15:08:49.109Z,0.80
2023-03-26T15:11:25.735Z,1.00
2023-03-26T15:14:04.877Z,1.20
2023-03-26T15:17:10.016Z,1.00
2023-03-26T15:19:56.255Z,0.80
2023-03-26T15:22:40.389Z,0.67
2023-03-26T15:25:33.195Z,1.30
2023-03-26T15:28:35.444Z,1.30
2023-03-26T15:31:31.061Z,0.70
2023-03-26T15:34:30.332Z,1.27
2023-03-26T15:37:35.239Z,1.17
2023-03-26T15:40:36.206Z,1.00
2023-03-26T15:43:11.325Z,0.70
2023-03-26T15:45:42.029Z,0.60
2023-03-26T15:48:35.239Z,0.70
2023-03-26T15:51:26.613Z,0.80
2023-03-26T15:54:01.648Z,0.60
2023-03-26T15:56:49.066Z,0.70
2023-03-26T15:59:29.429Z,0.87
2023-03-26T16:02:03.929Z,1.80
2023-03-26T16:04:50.685Z,0.90
2023-03-26T16:07:47.010Z,0.80
2023-03-26T16:10:29.119Z,0.70
2023-03-26T16:13:18.989Z,0.70
2023-03-26T16:15:51.626Z,0.70
2023-03-26T16:18:27.113Z,0.60
2023-03-26T16:20:57.188Z,0.67
2023-03-26T16:23:29.397Z,0.80
2023-03-26T16:26:00.366Z,0.60
2023-03-26T16:28:35.456Z,0.73
2023-03-26T16:31:37.356Z,0.77
2023-03-26T16:34:23.476Z,0.70
2023-03-26T16:36:54.098Z,0.60
2023-03-26T16:39:24.508Z,0.80
2023-03-26T16:41:56.949Z,0.53
2023-03-26T16:44:44.346Z,0.50
2023-03-26T16:47:24.328Z,0.53
2023-03-26T16:50:08.516Z,0.67
2023-03-26T16:52:45.449Z,0.50
2023-03-26T16:55:20.620Z,0.87
2023-03-26T16:57:56.148Z,0.50
2023-03-26T17:00:37.095Z,0.60
2023-03-26T17:03:33.764Z,0.60
2023-03-26T17:06:06.355Z,0.60
2023-03-26T17:08:42.571Z,0.90
2023-03-26T17:11:22.267Z,0.70
2023-03-26T17:14:03.170Z,0.70
2023-03-26T17:16:36.625Z,0.63
2023-03-26T17:19:15.245Z,0.57
2023-03-26T17:21:52.775Z,0.70
2023-03-26T17:24:28.682Z,0.90
2023-03-26T17:27:02.394Z,0.60
2023-03-26T17:29:43.748Z,0.80
2023-03-26T17:32:15.105Z,0.60
2023-03-26T17:34:56.904Z,0.60
2023-03-26T17:37:47.770Z,0.70
2023-03-26T17:40:50.982Z,0.73
2023-03-26T17:43:43.359Z,0.93
2023-03-26T17:46:21.538Z,0.60
2023-03-26T17:48:58.108Z,0.63
2023-03-26T17:51:38.716Z,0.60
2023-03-26T17:54:09.289Z,1.70
2023-03-26T17:56:38.835Z,1.30
2023-03-26T17:59:11.341Z,0.57
2023-03-26T18:01:44.139Z,0.70
2023-03-26T18:04:18.710Z,0.60
2023-03-26T18:07:09.547Z,0.60
2023-03-26T18:09:49.613Z,0.80
2023-03-26T18:12:40.799Z,0.70
2023-03-26T18:15:22.956Z,0.60
2023-03-26T18:17:51.733Z,0.70
2023-03-26T18:20:24.414Z,0.70
2023-03-26T18:22:53.465Z,0.80
2023-03-26T18:25:26.175Z,1.07
2023-03-26T18:27:57.376Z,0.87
2023-03-26T18:30:26.945Z,0.60
2023-03-26T18:33:01.972Z,0.63
2023-03-26T18:35:42.180Z,0.60
2023-03-26T18:38:15.509Z,0.70
2023-03-26T18:40:44.993Z,1.63
2023-03-26T18:43:28.657Z,0.70
2023-03-26T18:46:04.317Z,0.63
2023-03-26T18:48:33.017Z,0.60
2023-03-26T18:51:05.864Z,0.90
2023-03-26T18:53:38.826Z,0.87
2023-03-26T18:56:20.529Z,0.87
2023-03-26T18:58:52.472Z,0.80
2023-03-26T19:01:25.966Z,0.80
2023-03-26T19:03:55.474Z,0.80
2023-03-26T19:06:25.976Z,0.80
2023-03-26T19:08:54.864Z,0.50
2023-03-26T19:11:23.754Z,0.70
2023-03-26T19:14:03.249Z,0.90
2023-03-26T19:16:36.340Z,0.83
2023-03-26T19:19:07.010Z,0.90
2023-03-26T19:21:37.507Z,0.73
2023-03-26T19:24:06.849Z,0.70
2023-03-26T19:26:36.489Z,0.70
2023-03-26T19:29:05.512Z,0.90
2023-03-26T19:31:35.663Z,0.70
2023-03-26T19:34:15.552Z,0.80
2023-03-26T19:36:58.053Z,0.70
2023-03-26T19:39:37.122Z,0.93
2023-03-26T19:42:07.376Z,0.70
2023-03-26T19:44:39.485Z,0.73
2023-03-26T19:47:13.230Z,0.80
2023-03-26T19:49:43.341Z,0.60
2023-03-26T19:52:15.889Z,0.80
2023-03-26T19:54:59.430Z,1.10
2023-03-26T19:57:30.742Z,0.70
2023-03-26T19:59:59.635Z,0.70
2023-03-26T20:02:29.033Z,0.70
2023-03-26T20:04:58.189Z,0.70
2023-03-26T20:07:35.643Z,0.80
2023-03-26T20:10:06.472Z,0.80
2023-03-26T20:12:35.154Z,0.73
2023-03-26T20:18:01.584Z,0.83
2023-03-26T20:20:30.687Z,1.10
2023-03-26T20:23:01.483Z,0.90
2023-03-26T20:25:32.757Z,0.80
2023-03-26T20:28:01.601Z,0.80
2023-03-26T20:33:12.789Z,0.80
2023-03-26T20:35:42.721Z,0.70
2023-03-26T20:38:12.844Z,0.67
2023-03-26T20:40:42.325Z,1.07
2023-03-26T20:43:13.630Z,0.70
2023-03-26T20:45:42.703Z,0.80
2023-03-26T20:48:11.967Z,0.70
2023-03-26T20:50:50.451Z,0.80
2023-03-26T20:53:21.223Z,0.60
2023-03-26T20:55:51.540Z,0.93
2023-03-26T20:58:31.170Z,0.50
2023-03-26T21:01:02.556Z,0.70
2023-03-26T21:03:31.307Z,0.50
2023-03-26T21:06:03.472Z,0.50
2023-03-26T21:08:37.056Z,0.80
2023-03-26T21:11:12.479Z,0.60
2023-03-26T21:13:44.854Z,0.60
2023-03-26T21:16:14.475Z,0.60
2023-03-26T21:18:43.686Z,0.53
2023-03-26T21:21:24.412Z,0.67
2023-03-26T21:24:00.231Z,0.60
2023-03-26T21:26:31.696Z,0.60
2023-03-26T21:29:00.848Z,0.60
2023-03-26T21:31:36.465Z,0.50
2023-03-26T21:34:06.206Z,0.50
2023-03-26T21:36:35.466Z,0.60
2023-03-26T21:39:06.409Z,0.67
2023-03-26T21:41:45.828Z,0.60
2023-03-26T21:44:15.245Z,0.73
2023-03-26T21:46:45.500Z,0.63
2023-03-26T21:49:16.677Z,0.90
2023-03-26T21:51:46.343Z,0.63
2023-03-26T21:54:27.953Z,0.70
2023-03-26T21:57:14.092Z,0.73
2023-03-26T21:59:47.759Z,0.90
2023-03-26T22:02:21.245Z,0.90
2023-03-26T22:04:53.196Z,0.97
2023-03-26T22:07:24.780Z,0.83
2023-03-26T22:09:55.335Z,1.27
2023-03-26T22:12:25.531Z,0.73
2023-03-26T22:14:54.205Z,0.87
2023-03-26T22:17:23.678Z,0.90
2023-03-26T22:19:52.319Z,0.70
2023-03-26T22:22:22.098Z,0.90
2023-03-26T22:24:50.739Z,0.70
2023-03-26T22:27:21.059Z,0.80
2023-03-26T22:29:50.106Z,0.70
2023-03-26T22:32:18.768Z,0.83
2023-03-26T22:34:47.339Z,0.83
2023-03-26T22:37:16.128Z,0.70
2023-03-26T22:39:44.780Z,0.80
2023-03-26T22:42:13.882Z,0.80
2023-03-26T22:44:43.873Z,0.80
2023-03-26T22:47:13.595Z,0.70
2023-03-26T22:49:42.330Z,0.80
2023-03-26T22:52:11.155Z,0.87
2023-03-26T22:54:39.794Z,0.70
2023-03-26T22:57:08.500Z,0.90
2023-03-26T22:59:37.191Z,0.70
2023-03-26T23:02:07.262Z,0.80
2023-03-26T23:04:37.536Z,1.50
2023-03-26T23:07:06.701Z,1.00
2023-03-26T23:09:36.521Z,0.80
2023-03-26T23:12:05.794Z,0.90
2023-03-26T23:14:34.438Z,0.87
2023-03-26T23:17:03.629Z,1.03
2023-03-26T23:19:34.620Z,0.90
2023-03-26T23:22:03.200Z,0.80
2023-03-26T23:24:31.770Z,0.80
2023-03-26T23:27:00.362Z,0.80
2023-03-26T23:29:30.019Z,0.60
2023-03-26T23:31:59.692Z,0.70
2023-03-26T23:34:28.440Z,1.43
2023-03-26T23:36:58.447Z,0.67
2023-03-26T23:39:28.553Z,0.70
2023-03-26T23:41:57.158Z,0.73
2023-03-26T23:44:25.750Z,0.60
2023-03-26T23:46:57.923Z,0.90
2023-03-26T23:49:26.893Z,0.90
2023-03-26T23:51:55.559Z,0.83
2023-03-26T23:54:25.614Z,0.70
2023-03-26T23:56:55.000Z,0.70
2023-03-26T23:59:23.684Z,0.70
